sensor_id;sensor_type;location;lat;lon;timestamp;P1;durP1;ratioP1;P2;durP2;ratioP2
3337;SDS011;1682;49.286;10.788;2024-02-14T00:02:09;5.40;;;4.90;;
3337;SDS011;1682;49.286;10.788;2024-02-14T00:04:58;5.37;;;4.90;;
3337;SDS011;1682;49.286;10.788;2024-02-14T00:07:47;5.73;;;4.03;;
3337;SDS011;1682;49.286;10.788;2024-02-14T00:10:34;3.00;;;2.43;;
3337;SDS011;1682;49.286;10.788;2024-02-14T00:13:22;2.43;;;2.23;;
3337;SDS011;1682;49.286;10.788;2024-02-14T00:16:10;3.43;;;3.13;;
3337;SDS011;1682;49.286;10.788;2024-02-14T00:18:57;5.40;;;3.73;;
3337;SDS011;1682;49.286;10.788;2024-02-14T00:21:46;4.20;;;2.57;;
3337;SDS011;1682;49.286;10.788;2024-02-14T00:24:33;3.50;;;2.30;;
3337;SDS011;1682;49.286;10.788;2024-02-14T00:27:21;2.33;;;2.13;;
3337;SDS011;1682;49.286;10.788;2024-02-14T00:30:10;3.67;;;3.37;;
3337;SDS011;1682;49.286;10.788;2024-02-14T00:32:57;7.00;;;4.10;;
3337;SDS011;1682;49.286;10.788;2024-02-14T00:35:45;3.30;;;2.50;;
3337;SDS011;1682;49.286;10.788;2024-02-14T00:38:34;2.30;;;2.20;;
3337;SDS011;1682;49.286;10.788;2024-02-14T00:41:21;7.00;;;4.70;;
3337;SDS011;1682;49.286;10.788;2024-02-14T00:44:09;4.50;;;4.20;;
3337;SDS011;1682;49.286;10.788;2024-02-14T00:46:56;8.00;;;5.47;;
3337;SDS011;1682;49.286;10.788;2024-02-14T00:49:44;4.77;;;4.30;;
3337;SDS011;1682;49.286;10.788;2024-02-14T00:52:32;3.07;;;2.27;;
3337;SDS011;1682;49.286;10.788;2024-02-14T00:55:21;2.70;;;2.50;;
3337;SDS011;1682;49.286;10.788;2024-02-14T00:58:08;7.60;;;3.57;;
3337;SDS011;1682;49.286;10.788;2024-02-14T01:00:56;6.40;;;5.60;;
3337;SDS011;1682;49.286;10.788;2024-02-14T01:03:44;3.10;;;2.33;;
3337;SDS011;1682;49.286;10.788;2024-02-14T01:06:31;7.87;;;4.33;;
3337;SDS011;1682;49.286;10.788;2024-02-14T01:09:19;7.00;;;5.70;;
3337;SDS011;1682;49.286;10.788;2024-02-14T01:12:08;6.17;;;4.10;;
3337;SDS011;1682;49.286;10.788;2024-02-14T01:14:55;4.27;;;2.53;;
3337;SDS011;1682;49.286;10.788;2024-02-14T01:17:43;3.70;;;3.40;;
3337;SDS011;1682;49.286;10.788;2024-02-14T01:20:32;6.60;;;5.10;;
3337;SDS011;1682;49.286;10.788;2024-02-14T01:23:20;5.67;;;5.10;;
3337;SDS011;1682;49.286;10.788;2024-02-14T01:26:08;5.93;;;4.27;;
3337;SDS011;1682;49.286;10.788;2024-02-14T01:28:56;4.17;;;3.80;;
3337;SDS011;1682;49.286;10.788;2024-02-14T01:31:45;5.90;;;5.10;;
3337;SDS011;1682;49.286;10.788;2024-02-14T01:34:34;4.10;;;3.70;;
3337;SDS011;1682;49.286;10.788;2024-02-14T01:37:21;2.70;;;2.57;;
3337;SDS011;1682;49.286;10.788;2024-02-14T01:40:09;3.47;;;2.67;;
3337;SDS011;1682;49.286;10.788;2024-02-14T01:42:57;3.07;;;2.30;;
3337;SDS011;1682;49.286;10.788;2024-02-14T01:45:47;2.40;;;2.30;;
3337;SDS011;1682;49.286;10.788;2024-02-14T01:48:34;11.37;;;3.97;;
3337;SDS011;1682;49.286;10.788;2024-02-14T01:51:22;5.50;;;4.33;;
3337;SDS011;1682;49.286;10.788;2024-02-14T01:54:11;2.20;;;2.00;;
3337;SDS011;1682;49.286;10.788;2024-02-14T01:56:59;1.80;;;1.67;;
3337;SDS011;1682;49.286;10.788;2024-02-14T01:59:48;1.80;;;1.70;;
3337;SDS011;1682;49.286;10.788;2024-02-14T02:02:38;2.63;;;2.43;;
3337;SDS011;1682;49.286;10.788;2024-02-14T02:05:26;3.50;;;3.30;;
3337;SDS011;1682;49.286;10.788;2024-02-14T02:08:14;5.70;;;3.90;;
3337;SDS011;1682;49.286;10.788;2024-02-14T02:11:01;5.77;;;5.17;;
3337;SDS011;1682;49.286;10.788;2024-02-14T02:13:49;12.30;;;6.50;;
3337;SDS011;1682;49.286;10.788;2024-02-14T02:16:36;4.53;;;2.03;;
3337;SDS011;1682;49.286;10.788;2024-02-14T02:19:25;6.00;;;4.43;;
3337;SDS011;1682;49.286;10.788;2024-02-14T02:22:13;2.43;;;2.33;;
3337;SDS011;1682;49.286;10.788;2024-02-14T02:25:02;5.40;;;3.87;;
3337;SDS011;1682;49.286;10.788;2024-02-14T02:27:52;1.93;;;1.77;;
3337;SDS011;1682;49.286;10.788;2024-02-14T02:30:40;2.13;;;1.93;;
3337;SDS011;1682;49.286;10.788;2024-02-14T02:33:27;4.93;;;3.10;;
3337;SDS011;1682;49.286;10.788;2024-02-14T02:36:15;2.10;;;2.00;;
3337;SDS011;1682;49.286;10.788;2024-02-14T02:39:02;3.07;;;2.87;;
3337;SDS011;1682;49.286;10.788;2024-02-14T02:41:51;4.10;;;2.87;;
3337;SDS011;1682;49.286;10.788;2024-02-14T02:44:42;3.20;;;1.93;;
3337;SDS011;1682;49.286;10.788;2024-02-14T02:47:29;1.77;;;1.67;;
3337;SDS011;1682;49.286;10.788;2024-02-14T02:50:17;4.00;;;1.93;;
3337;SDS011;1682;49.286;10.788;2024-02-14T02:53:05;2.10;;;2.00;;
3337;SDS011;1682;49.286;10.788;2024-02-14T02:55:52;2.07;;;1.87;;
3337;SDS011;1682;49.286;10.788;2024-02-14T02:58:43;2.17;;;2.07;;
3337;SDS011;1682;49.286;10.788;2024-02-14T03:01:34;2.93;;;2.27;;
3337;SDS011;1682;49.286;10.788;2024-02-14T03:04:22;4.87;;;2.60;;
3337;SDS011;1682;49.286;10.788;2024-02-14T03:07:09;1.93;;;1.73;;
3337;SDS011;1682;49.286;10.788;2024-02-14T03:09:57;3.40;;;3.20;;
3337;SDS011;1682;49.286;10.788;2024-02-14T03:12:45;2.73;;;2.53;;
3337;SDS011;1682;49.286;10.788;2024-02-14T03:15:34;3.90;;;3.60;;
3337;SDS011;1682;49.286;10.788;2024-02-14T03:18:22;3.77;;;3.47;;
3337;SDS011;1682;49.286;10.788;2024-02-14T03:21:09;7.57;;;3.67;;
3337;SDS011;1682;49.286;10.788;2024-02-14T03:23:57;3.57;;;3.37;;
3337;SDS011;1682;49.286;10.788;2024-02-14T03:26:44;3.70;;;3.40;;
3337;SDS011;1682;49.286;10.788;2024-02-14T03:29:32;6.53;;;4.80;;
3337;SDS011;1682;49.286;10.788;2024-02-14T03:32:22;3.43;;;3.20;;
3337;SDS011;1682;49.286;10.788;2024-02-14T03:35:09;3.40;;;3.20;;
3337;SDS011;1682;49.286;10.788;2024-02-14T03:37:59;11.13;;;3.70;;
3337;SDS011;1682;49.286;10.788;2024-02-14T03:40:47;2.43;;;2.33;;
3337;SDS011;1682;49.286;10.788;2024-02-14T03:43:34;3.60;;;3.40;;
3337;SDS011;1682;49.286;10.788;2024-02-14T03:46:22;2.63;;;2.43;;
3337;SDS011;1682;49.286;10.788;2024-02-14T03:49:10;2.00;;;1.80;;
3337;SDS011;1682;49.286;10.788;2024-02-14T03:51:58;3.83;;;3.43;;
3337;SDS011;1682;49.286;10.788;2024-02-14T03:54:46;3.63;;;1.77;;
3337;SDS011;1682;49.286;10.788;2024-02-14T03:57:34;2.80;;;2.40;;
3337;SDS011;1682;49.286;10.788;2024-02-14T04:00:24;4.13;;;3.80;;
3337;SDS011;1682;49.286;10.788;2024-02-14T04:03:11;1.63;;;1.53;;
3337;SDS011;1682;49.286;10.788;2024-02-14T04:06:00;3.43;;;3.13;;
3337;SDS011;1682;49.286;10.788;2024-02-14T04:08:48;2.60;;;2.40;;
3337;SDS011;1682;49.286;10.788;2024-02-14T04:11:35;2.93;;;2.73;;
3337;SDS011;1682;49.286;10.788;2024-02-14T04:14:23;3.37;;;3.03;;
3337;SDS011;1682;49.286;10.788;2024-02-14T04:17:10;3.87;;;3.20;;
3337;SDS011;1682;49.286;10.788;2024-02-14T04:19:59;2.77;;;2.57;;
3337;SDS011;1682;49.286;10.788;2024-02-14T04:22:48;3.37;;;2.90;;
3337;SDS011;1682;49.286;10.788;2024-02-14T04:25:35;4.00;;;3.70;;
3337;SDS011;1682;49.286;10.788;2024-02-14T04:28:23;2.27;;;2.17;;
3337;SDS011;1682;49.286;10.788;2024-02-14T04:31:10;4.83;;;3.87;;
3337;SDS011;1682;49.286;10.788;2024-02-14T04:33:58;2.90;;;2.50;;
3337;SDS011;1682;49.286;10.788;2024-02-14T04:36:46;5.13;;;3.00;;
3337;SDS011;1682;49.286;10.788;2024-02-14T04:39:35;4.53;;;4.00;;
3337;SDS011;1682;49.286;10.788;2024-02-14T04:42:22;5.20;;;4.20;;
3337;SDS011;1682;49.286;10.788;2024-02-14T04:45:10;5.27;;;3.70;;
3337;SDS011;1682;49.286;10.788;2024-02-14T04:47:57;5.40;;;3.27;;
3337;SDS011;1682;49.286;10.788;2024-02-14T04:50:44;5.27;;;4.00;;
3337;SDS011;1682;49.286;10.788;2024-02-14T04:53:32;4.43;;;4.07;;
3337;SDS011;1682;49.286;10.788;2024-02-14T04:56:22;4.30;;;3.80;;
3337;SDS011;1682;49.286;10.788;2024-02-14T04:59:09;3.17;;;2.97;;
3337;SDS011;1682;49.286;10.788;2024-02-14T05:01:57;4.57;;;3.67;;
3337;SDS011;1682;49.286;10.788;2024-02-14T05:04:44;4.83;;;4.43;;
3337;SDS011;1682;49.286;10.788;2024-02-14T05:07:32;5.13;;;4.03;;
3337;SDS011;1682;49.286;10.788;2024-02-14T05:10:19;4.67;;;4.37;;
3337;SDS011;1682;49.286;10.788;2024-02-14T05:13:08;11.57;;;5.90;;
3337;SDS011;1682;49.286;10.788;2024-02-14T05:15:56;3.93;;;3.63;;
3337;SDS011;1682;49.286;10.788;2024-02-14T05:18:43;4.93;;;4.50;;
3337;SDS011;1682;49.286;10.788;2024-02-14T05:21:31;4.50;;;4.10;;
3337;SDS011;1682;49.286;10.788;2024-02-14T05:24:18;6.60;;;3.90;;
3337;SDS011;1682;49.286;10.788;2024-02-14T05:27:06;4.63;;;4.27;;
3337;SDS011;1682;49.286;10.788;2024-02-14T05:29:54;4.50;;;4.10;;
3337;SDS011;1682;49.286;10.788;2024-02-14T05:32:42;7.43;;;5.50;;
3337;SDS011;1682;49.286;10.788;2024-02-14T05:35:30;7.17;;;4.73;;
3337;SDS011;1682;49.286;10.788;2024-02-14T05:38:17;5.30;;;4.83;;
3337;SDS011;1682;49.286;10.788;2024-02-14T05:41:05;7.97;;;7.13;;
3337;SDS011;1682;49.286;10.788;2024-02-14T05:43:53;6.97;;;6.00;;
3337;SDS011;1682;49.286;10.788;2024-02-14T05:46:42;11.10;;;8.00;;
3337;SDS011;1682;49.286;10.788;2024-02-14T05:49:30;10.40;;;6.43;;
3337;SDS011;1682;49.286;10.788;2024-02-14T05:52:18;10.47;;;6.17;;
3337;SDS011;1682;49.286;10.788;2024-02-14T05:55:07;4.73;;;4.33;;
3337;SDS011;1682;49.286;10.788;2024-02-14T05:57:54;7.30;;;6.13;;
3337;SDS011;1682;49.286;10.788;2024-02-14T06:00:44;8.93;;;7.83;;
3337;SDS011;1682;49.286;10.788;2024-02-14T06:03:33;15.10;;;6.70;;
3337;SDS011;1682;49.286;10.788;2024-02-14T06:06:21;7.13;;;5.97;;
3337;SDS011;1682;49.286;10.788;2024-02-14T06:09:09;11.33;;;8.30;;
3337;SDS011;1682;49.286;10.788;2024-02-14T06:11:57;7.90;;;6.73;;
3337;SDS011;1682;49.286;10.788;2024-02-14T06:14:47;5.90;;;4.57;;
3337;SDS011;1682;49.286;10.788;2024-02-14T06:17:35;5.40;;;4.83;;
3337;SDS011;1682;49.286;10.788;2024-02-14T06:20:24;8.17;;;5.87;;
3337;SDS011;1682;49.286;10.788;2024-02-14T06:23:11;4.00;;;3.70;;
3337;SDS011;1682;49.286;10.788;2024-02-14T06:25:58;6.03;;;5.03;;
3337;SDS011;1682;49.286;10.788;2024-02-14T06:28:46;5.40;;;4.07;;
3337;SDS011;1682;49.286;10.788;2024-02-14T06:31:37;3.77;;;3.43;;
3337;SDS011;1682;49.286;10.788;2024-02-14T06:34:25;5.67;;;5.13;;
3337;SDS011;1682;49.286;10.788;2024-02-14T06:37:15;5.10;;;4.63;;
3337;SDS011;1682;49.286;10.788;2024-02-14T06:40:02;14.43;;;4.60;;
3337;SDS011;1682;49.286;10.788;2024-02-14T06:42:53;5.57;;;3.90;;
3337;SDS011;1682;49.286;10.788;2024-02-14T06:45:42;3.30;;;3.10;;
3337;SDS011;1682;49.286;10.788;2024-02-14T06:48:30;5.33;;;4.37;;
3337;SDS011;1682;49.286;10.788;2024-02-14T06:51:17;8.40;;;5.53;;
3337;SDS011;1682;49.286;10.788;2024-02-14T06:54:07;11.80;;;5.03;;
3337;SDS011;1682;49.286;10.788;2024-02-14T06:56:54;7.97;;;5.87;;
3337;SDS011;1682;49.286;10.788;2024-02-14T06:59:42;9.07;;;6.37;;
3337;SDS011;1682;49.286;10.788;2024-02-14T07:02:29;5.43;;;4.97;;
3337;SDS011;1682;49.286;10.788;2024-02-14T07:05:17;6.17;;;4.57;;
3337;SDS011;1682;49.286;10.788;2024-02-14T07:08:04;7.00;;;4.23;;
3337;SDS011;1682;49.286;10.788;2024-02-14T07:10:54;5.60;;;3.97;;
3337;SDS011;1682;49.286;10.788;2024-02-14T07:13:42;3.90;;;3.57;;
3337;SDS011;1682;49.286;10.788;2024-02-14T07:16:29;4.53;;;4.13;;
3337;SDS011;1682;49.286;10.788;2024-02-14T07:19:16;3.43;;;3.20;;
3337;SDS011;1682;49.286;10.788;2024-02-14T07:22:04;5.00;;;3.80;;
3337;SDS011;1682;49.286;10.788;2024-02-14T07:24:51;9.23;;;4.13;;
3337;SDS011;1682;49.286;10.788;2024-02-14T07:27:41;4.97;;;3.60;;
3337;SDS011;1682;49.286;10.788;2024-02-14T07:30:29;5.10;;;3.57;;
3337;SDS011;1682;49.286;10.788;2024-02-14T07:33:17;7.13;;;4.47;;
3337;SDS011;1682;49.286;10.788;2024-02-14T07:36:05;3.87;;;3.57;;
3337;SDS011;1682;49.286;10.788;2024-02-14T07:38:52;8.03;;;3.67;;
3337;SDS011;1682;49.286;10.788;2024-02-14T07:41:40;4.87;;;3.33;;
3337;SDS011;1682;49.286;10.788;2024-02-14T07:44:28;3.73;;;3.43;;
3337;SDS011;1682;49.286;10.788;2024-02-14T07:47:16;4.20;;;3.37;;
3337;SDS011;1682;49.286;10.788;2024-02-14T07:50:05;3.70;;;3.40;;
3337;SDS011;1682;49.286;10.788;2024-02-14T07:52:52;3.40;;;3.10;;
3337;SDS011;1682;49.286;10.788;2024-02-14T07:55:40;3.77;;;2.90;;
3337;SDS011;1682;49.286;10.788;2024-02-14T07:58:28;4.80;;;3.00;;
3337;SDS011;1682;49.286;10.788;2024-02-14T08:01:17;5.53;;;4.13;;
3337;SDS011;1682;49.286;10.788;2024-02-14T08:04:05;3.83;;;3.27;;
3337;SDS011;1682;49.286;10.788;2024-02-14T08:06:52;6.13;;;3.60;;
3337;SDS011;1682;49.286;10.788;2024-02-14T08:09:40;6.37;;;4.20;;
3337;SDS011;1682;49.286;10.788;2024-02-14T08:12:28;4.60;;;2.80;;
3337;SDS011;1682;49.286;10.788;2024-02-14T08:15:15;4.67;;;3.23;;
3337;SDS011;1682;49.286;10.788;2024-02-14T08:18:04;5.50;;;4.90;;
3337;SDS011;1682;49.286;10.788;2024-02-14T08:20:52;15.57;;;10.50;;
3337;SDS011;1682;49.286;10.788;2024-02-14T08:23:40;5.40;;;4.90;;
3337;SDS011;1682;49.286;10.788;2024-02-14T08:26:28;5.10;;;4.00;;
3337;SDS011;1682;49.286;10.788;2024-02-14T08:29:17;9.20;;;4.13;;
3337;SDS011;1682;49.286;10.788;2024-02-14T08:32:04;4.90;;;3.60;;
3337;SDS011;1682;49.286;10.788;2024-02-14T08:34:53;4.67;;;3.10;;
3337;SDS011;1682;49.286;10.788;2024-02-14T08:37:41;3.43;;;3.20;;
3337;SDS011;1682;49.286;10.788;2024-02-14T08:40:28;2.77;;;2.53;;
3337;SDS011;1682;49.286;10.788;2024-02-14T08:43:16;3.30;;;2.83;;
3337;SDS011;1682;49.286;10.788;2024-02-14T08:46:08;4.13;;;3.30;;
3337;SDS011;1682;49.286;10.788;2024-02-14T08:48:56;4.07;;;2.80;;
3337;SDS011;1682;49.286;10.788;2024-02-14T08:51:45;3.40;;;3.00;;
3337;SDS011;1682;49.286;10.788;2024-02-14T08:54:34;5.37;;;3.17;;
3337;SDS011;1682;49.286;10.788;2024-02-14T08:57:21;6.63;;;3.87;;
3337;SDS011;1682;49.286;10.788;2024-02-14T09:00:09;3.57;;;3.27;;
3337;SDS011;1682;49.286;10.788;2024-02-14T09:02:58;3.20;;;3.00;;
3337;SDS011;1682;49.286;10.788;2024-02-14T09:05:46;3.30;;;2.57;;
3337;SDS011;1682;49.286;10.788;2024-02-14T09:08:35;4.37;;;2.57;;
3337;SDS011;1682;49.286;10.788;2024-02-14T09:11:23;4.60;;;2.73;;
3337;SDS011;1682;49.286;10.788;2024-02-14T09:14:11;2.70;;;2.50;;
3337;SDS011;1682;49.286;10.788;2024-02-14T09:16:59;4.70;;;2.73;;
3337;SDS011;1682;49.286;10.788;2024-02-14T09:19:47;3.10;;;2.80;;
3337;SDS011;1682;49.286;10.788;2024-02-14T09:22:34;3.40;;;2.30;;
3337;SDS011;1682;49.286;10.788;2024-02-14T09:25:23;2.93;;;2.70;;
3337;SDS011;1682;49.286;10.788;2024-02-14T09:28:11;3.07;;;2.37;;
3337;SDS011;1682;49.286;10.788;2024-02-14T09:30:59;2.93;;;2.67;;
3337;SDS011;1682;49.286;10.788;2024-02-14T09:33:49;3.80;;;2.10;;
3337;SDS011;1682;49.286;10.788;2024-02-14T09:36:36;4.30;;;3.30;;
3337;SDS011;1682;49.286;10.788;2024-02-14T09:39:24;2.60;;;2.40;;
3337;SDS011;1682;49.286;10.788;2024-02-14T09:42:14;7.33;;;2.67;;
3337;SDS011;1682;49.286;10.788;2024-02-14T09:45:03;3.13;;;2.83;;
3337;SDS011;1682;49.286;10.788;2024-02-14T09:47:51;4.13;;;2.30;;
3337;SDS011;1682;49.286;10.788;2024-02-14T09:50:39;3.67;;;2.77;;
3337;SDS011;1682;49.286;10.788;2024-02-14T09:53:27;3.47;;;2.63;;
3337;SDS011;1682;49.286;10.788;2024-02-14T09:56:15;2.53;;;2.33;;
3337;SDS011;1682;49.286;10.788;2024-02-14T09:59:09;5.80;;;2.87;;
3337;SDS011;1682;49.286;10.788;2024-02-14T10:01:57;10.37;;;3.20;;
3337;SDS011;1682;49.286;10.788;2024-02-14T10:04:44;3.10;;;2.30;;
3337;SDS011;1682;49.286;10.788;2024-02-14T10:07:39;3.73;;;3.43;;
3337;SDS011;1682;49.286;10.788;2024-02-14T10:10:27;2.57;;;2.37;;
3337;SDS011;1682;49.286;10.788;2024-02-14T10:13:15;3.00;;;2.37;;
3337;SDS011;1682;49.286;10.788;2024-02-14T10:16:04;2.20;;;2.10;;
3337;SDS011;1682;49.286;10.788;2024-02-14T10:18:53;2.50;;;2.30;;
3337;SDS011;1682;49.286;10.788;2024-02-14T10:21:41;5.03;;;2.43;;
3337;SDS011;1682;49.286;10.788;2024-02-14T10:24:29;3.23;;;2.37;;
3337;SDS011;1682;49.286;10.788;2024-02-14T10:27:17;8.80;;;2.73;;
3337;SDS011;1682;49.286;10.788;2024-02-14T10:30:05;6.63;;;1.77;;
3337;SDS011;1682;49.286;10.788;2024-02-14T10:32:56;3.27;;;2.20;;
3337;SDS011;1682;49.286;10.788;2024-02-14T10:35:45;2.70;;;2.60;;
3337;SDS011;1682;49.286;10.788;2024-02-14T10:38:34;1.93;;;1.83;;
3337;SDS011;1682;49.286;10.788;2024-02-14T10:41:21;1.93;;;1.60;;
3337;SDS011;1682;49.286;10.788;2024-02-14T10:44:09;1.50;;;1.40;;
3337;SDS011;1682;49.286;10.788;2024-02-14T10:46:58;1.83;;;1.73;;
3337;SDS011;1682;49.286;10.788;2024-02-14T10:49:49;5.43;;;2.40;;
3337;SDS011;1682;49.286;10.788;2024-02-14T10:52:37;6.73;;;1.50;;
3337;SDS011;1682;49.286;10.788;2024-02-14T10:55:28;2.50;;;1.50;;
3337;SDS011;1682;49.286;10.788;2024-02-14T10:58:16;1.73;;;1.63;;
3337;SDS011;1682;49.286;10.788;2024-02-14T11:01:04;1.67;;;1.50;;
3337;SDS011;1682;49.286;10.788;2024-02-14T11:03:53;1.97;;;1.73;;
3337;SDS011;1682;49.286;10.788;2024-02-14T11:06:45;1.50;;;1.40;;
3337;SDS011;1682;49.286;10.788;2024-02-14T11:09:33;12.03;;;2.40;;
3337;SDS011;1682;49.286;10.788;2024-02-14T11:12:23;2.03;;;1.90;;
3337;SDS011;1682;49.286;10.788;2024-02-14T11:15:11;1.83;;;1.73;;
3337;SDS011;1682;49.286;10.788;2024-02-14T11:18:03;2.20;;;1.77;;
3337;SDS011;1682;49.286;10.788;2024-02-14T11:20:52;2.30;;;1.60;;
3337;SDS011;1682;49.286;10.788;2024-02-14T11:23:52;3.00;;;1.87;;
3337;SDS011;1682;49.286;10.788;2024-02-14T11:26:39;1.70;;;1.57;;
3337;SDS011;1682;49.286;10.788;2024-02-14T11:29:29;1.60;;;1.50;;
3337;SDS011;1682;49.286;10.788;2024-02-14T11:32:17;2.70;;;1.40;;
3337;SDS011;1682;49.286;10.788;2024-02-14T11:35:04;1.53;;;1.43;;
3337;SDS011;1682;49.286;10.788;2024-02-14T11:37:52;4.93;;;1.83;;
3337;SDS011;1682;49.286;10.788;2024-02-14T11:40:41;3.20;;;1.50;;
3337;SDS011;1682;49.286;10.788;2024-02-14T11:43:28;2.83;;;1.53;;
3337;SDS011;1682;49.286;10.788;2024-02-14T11:46:17;5.37;;;1.80;;
3337;SDS011;1682;49.286;10.788;2024-02-14T11:49:05;3.57;;;1.50;;
3337;SDS011;1682;49.286;10.788;2024-02-14T11:51:52;1.73;;;1.27;;
3337;SDS011;1682;49.286;10.788;2024-02-14T11:54:45;2.93;;;1.60;;
3337;SDS011;1682;49.286;10.788;2024-02-14T11:57:36;2.27;;;1.60;;
3337;SDS011;1682;49.286;10.788;2024-02-14T12:00:23;1.60;;;1.50;;
3337;SDS011;1682;49.286;10.788;2024-02-14T12:03:11;1.07;;;0.97;;
3337;SDS011;1682;49.286;10.788;2024-02-14T12:05:59;1.43;;;1.33;;
3337;SDS011;1682;49.286;10.788;2024-02-14T12:08:47;2.17;;;1.40;;
3337;SDS011;1682;49.286;10.788;2024-02-14T12:11:35;1.90;;;1.80;;
3337;SDS011;1682;49.286;10.788;2024-02-14T12:14:25;2.77;;;1.57;;
3337;SDS011;1682;49.286;10.788;2024-02-14T12:17:15;1.27;;;1.17;;
3337;SDS011;1682;49.286;10.788;2024-02-14T12:20:08;2.10;;;1.60;;
3337;SDS011;1682;49.286;10.788;2024-02-14T12:22:56;3.87;;;2.47;;
3337;SDS011;1682;49.286;10.788;2024-02-14T12:25:45;3.13;;;2.50;;
3337;SDS011;1682;49.286;10.788;2024-02-14T12:28:33;16.67;;;6.07;;
3337;SDS011;1682;49.286;10.788;2024-02-14T12:31:23;1.60;;;1.50;;
3337;SDS011;1682;49.286;10.788;2024-02-14T12:34:11;1.90;;;1.70;;
3337;SDS011;1682;49.286;10.788;2024-02-14T12:36:59;5.70;;;1.43;;
3337;SDS011;1682;49.286;10.788;2024-02-14T12:39:46;2.43;;;1.83;;
3337;SDS011;1682;49.286;10.788;2024-02-14T12:42:34;2.40;;;1.50;;
3337;SDS011;1682;49.286;10.788;2024-02-14T12:45:22;2.53;;;2.33;;
3337;SDS011;1682;49.286;10.788;2024-02-14T12:48:11;1.37;;;1.27;;
3337;SDS011;1682;49.286;10.788;2024-02-14T12:50:59;1.97;;;1.77;;
3337;SDS011;1682;49.286;10.788;2024-02-14T12:53:47;1.70;;;1.60;;
3337;SDS011;1682;49.286;10.788;2024-02-14T12:56:34;1.50;;;1.40;;
3337;SDS011;1682;49.286;10.788;2024-02-14T12:59:22;3.00;;;1.50;;
3337;SDS011;1682;49.286;10.788;2024-02-14T13:02:09;1.73;;;1.63;;
3337;SDS011;1682;49.286;10.788;2024-02-14T13:04:58;1.87;;;1.70;;
3337;SDS011;1682;49.286;10.788;2024-02-14T13:07:46;1.30;;;1.20;;
3337;SDS011;1682;49.286;10.788;2024-02-14T13:10:34;2.23;;;2.10;;
3337;SDS011;1682;49.286;10.788;2024-02-14T13:13:21;4.43;;;1.47;;
3337;SDS011;1682;49.286;10.788;2024-02-14T13:16:09;1.50;;;1.27;;
3337;SDS011;1682;49.286;10.788;2024-02-14T13:18:57;1.93;;;1.50;;
3337;SDS011;1682;49.286;10.788;2024-02-14T13:21:46;2.50;;;2.00;;
3337;SDS011;1682;49.286;10.788;2024-02-14T13:24:33;1.87;;;1.70;;
3337;SDS011;1682;49.286;10.788;2024-02-14T13:27:21;1.40;;;1.30;;
3337;SDS011;1682;49.286;10.788;2024-02-14T13:30:09;1.53;;;1.17;;
3337;SDS011;1682;49.286;10.788;2024-02-14T13:32:56;2.23;;;1.50;;
3337;SDS011;1682;49.286;10.788;2024-02-14T13:35:44;1.30;;;1.20;;
3337;SDS011;1682;49.286;10.788;2024-02-14T13:38:32;1.13;;;1.13;;
3337;SDS011;1682;49.286;10.788;2024-02-14T13:41:20;1.00;;;1.00;;
3337;SDS011;1682;49.286;10.788;2024-02-14T13:44:08;3.43;;;1.23;;
3337;SDS011;1682;49.286;10.788;2024-02-14T13:46:55;2.00;;;1.70;;
3337;SDS011;1682;49.286;10.788;2024-02-14T13:49:44;1.67;;;1.57;;
3337;SDS011;1682;49.286;10.788;2024-02-14T13:52:31;2.47;;;1.73;;
3337;SDS011;1682;49.286;10.788;2024-02-14T13:55:21;3.47;;;1.20;;
3337;SDS011;1682;49.286;10.788;2024-02-14T13:58:10;2.87;;;1.40;;
3337;SDS011;1682;49.286;10.788;2024-02-14T14:01:02;2.30;;;1.90;;
3337;SDS011;1682;49.286;10.788;2024-02-14T14:03:49;0.80;;;0.80;;
3337;SDS011;1682;49.286;10.788;2024-02-14T14:06:37;4.30;;;1.20;;
3337;SDS011;1682;49.286;10.788;2024-02-14T14:09:24;1.73;;;1.60;;
3337;SDS011;1682;49.286;10.788;2024-02-14T14:12:13;1.60;;;1.50;;
3337;SDS011;1682;49.286;10.788;2024-02-14T14:15:01;8.20;;;1.83;;
3337;SDS011;1682;49.286;10.788;2024-02-14T14:17:49;1.80;;;1.70;;
3337;SDS011;1682;49.286;10.788;2024-02-14T14:20:36;1.77;;;1.67;;
3337;SDS011;1682;49.286;10.788;2024-02-14T14:23:24;2.40;;;2.20;;
3337;SDS011;1682;49.286;10.788;2024-02-14T14:26:12;1.60;;;1.50;;
3337;SDS011;1682;49.286;10.788;2024-02-14T14:29:02;2.10;;;2.00;;
3337;SDS011;1682;49.286;10.788;2024-02-14T14:31:50;1.20;;;1.10;;
3337;SDS011;1682;49.286;10.788;2024-02-14T14:34:38;2.10;;;1.90;;
3337;SDS011;1682;49.286;10.788;2024-02-14T14:37:25;1.60;;;1.50;;
3337;SDS011;1682;49.286;10.788;2024-02-14T14:40:13;1.10;;;1.10;;
3337;SDS011;1682;49.286;10.788;2024-02-14T14:43:00;1.80;;;1.70;;
3337;SDS011;1682;49.286;10.788;2024-02-14T14:45:49;1.13;;;1.07;;
3337;SDS011;1682;49.286;10.788;2024-02-14T14:48:38;1.37;;;1.20;;
3337;SDS011;1682;49.286;10.788;2024-02-14T14:51:25;1.50;;;1.40;;
3337;SDS011;1682;49.286;10.788;2024-02-14T14:54:13;1.90;;;1.60;;
3337;SDS011;1682;49.286;10.788;2024-02-14T14:57:00;6.30;;;1.77;;
3337;SDS011;1682;49.286;10.788;2024-02-14T14:59:49;1.10;;;1.00;;
3337;SDS011;1682;49.286;10.788;2024-02-14T15:02:39;2.13;;;1.87;;
3337;SDS011;1682;49.286;10.788;2024-02-14T15:05:26;2.13;;;1.53;;
3337;SDS011;1682;49.286;10.788;2024-02-14T15:08:14;2.40;;;1.60;;
3337;SDS011;1682;49.286;10.788;2024-02-14T15:11:03;3.87;;;1.80;;
3337;SDS011;1682;49.286;10.788;2024-02-14T15:13:51;1.93;;;1.83;;
3337;SDS011;1682;49.286;10.788;2024-02-14T15:16:39;1.27;;;1.17;;
3337;SDS011;1682;49.286;10.788;2024-02-14T15:19:28;1.20;;;1.10;;
3337;SDS011;1682;49.286;10.788;2024-02-14T15:22:16;2.73;;;1.80;;
3337;SDS011;1682;49.286;10.788;2024-02-14T15:25:03;4.73;;;2.10;;
3337;SDS011;1682;49.286;10.788;2024-02-14T15:27:51;2.13;;;1.60;;
3337;SDS011;1682;49.286;10.788;2024-02-14T15:30:40;3.80;;;2.60;;
3337;SDS011;1682;49.286;10.788;2024-02-14T15:33:42;8.20;;;2.77;;
3337;SDS011;1682;49.286;10.788;2024-02-14T15:36:31;2.83;;;2.57;;
3337;SDS011;1682;49.286;10.788;2024-02-14T15:39:18;3.50;;;2.50;;
3337;SDS011;1682;49.286;10.788;2024-02-14T15:42:06;2.60;;;2.20;;
3337;SDS011;1682;49.286;10.788;2024-02-14T15:44:55;3.77;;;1.73;;
3337;SDS011;1682;49.286;10.788;2024-02-14T15:47:43;1.97;;;1.53;;
3337;SDS011;1682;49.286;10.788;2024-02-14T15:50:31;2.73;;;1.87;;
3337;SDS011;1682;49.286;10.788;2024-02-14T15:53:20;2.50;;;2.03;;
3337;SDS011;1682;49.286;10.788;2024-02-14T15:56:08;2.70;;;1.90;;
3337;SDS011;1682;49.286;10.788;2024-02-14T15:58:57;2.70;;;2.50;;
3337;SDS011;1682;49.286;10.788;2024-02-14T16:01:46;3.33;;;2.83;;
3337;SDS011;1682;49.286;10.788;2024-02-14T16:04:34;4.10;;;3.80;;
3337;SDS011;1682;49.286;10.788;2024-02-14T16:07:21;3.93;;;1.93;;
3337;SDS011;1682;49.286;10.788;2024-02-14T16:10:10;1.90;;;1.50;;
3337;SDS011;1682;49.286;10.788;2024-02-14T16:13:00;7.93;;;2.30;;
3337;SDS011;1682;49.286;10.788;2024-02-14T16:15:48;2.50;;;1.90;;
3337;SDS011;1682;49.286;10.788;2024-02-14T16:18:35;5.03;;;1.50;;
3337;SDS011;1682;49.286;10.788;2024-02-14T16:21:23;2.60;;;2.07;;
3337;SDS011;1682;49.286;10.788;2024-02-14T16:24:11;4.63;;;3.10;;
3337;SDS011;1682;49.286;10.788;2024-02-14T16:27:00;2.50;;;2.17;;
3337;SDS011;1682;49.286;10.788;2024-02-14T16:29:48;2.40;;;2.20;;
3337;SDS011;1682;49.286;10.788;2024-02-14T16:32:35;3.30;;;2.10;;
3337;SDS011;1682;49.286;10.788;2024-02-14T16:35:23;2.80;;;2.60;;
3337;SDS011;1682;49.286;10.788;2024-02-14T16:38:10;1.17;;;1.07;;
3337;SDS011;1682;49.286;10.788;2024-02-14T16:40:58;2.23;;;1.43;;
3337;SDS011;1682;49.286;10.788;2024-02-14T16:43:47;1.43;;;1.33;;
3337;SDS011;1682;49.286;10.788;2024-02-14T16:46:35;1.47;;;1.37;;
3337;SDS011;1682;49.286;10.788;2024-02-14T16:49:23;2.17;;;1.83;;
3337;SDS011;1682;49.286;10.788;2024-02-14T16:52:10;1.70;;;1.60;;
3337;SDS011;1682;49.286;10.788;2024-02-14T16:54:58;3.07;;;2.87;;
3337;SDS011;1682;49.286;10.788;2024-02-14T16:57:46;4.47;;;3.83;;
3337;SDS011;1682;49.286;10.788;2024-02-14T17:00:35;4.17;;;3.80;;
3337;SDS011;1682;49.286;10.788;2024-02-14T17:03:22;5.23;;;4.83;;
3337;SDS011;1682;49.286;10.788;2024-02-14T17:06:10;4.67;;;4.27;;
3337;SDS011;1682;49.286;10.788;2024-02-14T17:08:57;7.43;;;6.47;;